DFW weather

Dallas Fort Worth International Airport
Dallas-Fort Worth, Texas, United States

Public forecast

Using degrees Fahrenheit for public forecast. Weather courtesy of forecast.io.

Current aviation weather report (METAR) for Dallas Fort Worth International Airport

Retrieved 2019/10/17 03:53 UTC (40 minutes ago):

KDFW 170353Z 00000KT 10SM BKN300 15/05 A3009 RMK AO2 SLP187 T01500050

Aviation forecast (TAF) for Dallas Fort Worth International Airport

Retrieved 2019-10-17 00:22 UTC (4 hours ago):

TAF KDFW 162320Z 1700/1806 02009KT P6SM BKN300 FM170200 03004KT P6SM BKN250 FM171200 15006KT P6SM FEW250